sensor_id;sensor_type;location;lat;lon;timestamp;temperature;humidity
45843;DHT22;31563;51.744;8.252;2023-06-14T00:00:02;28.90;31.10
45843;DHT22;31563;51.744;8.252;2023-06-14T00:02:32;28.80;31.10
45843;DHT22;31563;51.744;8.252;2023-06-14T00:05:01;28.80;31.10
45843;DHT22;31563;51.744;8.252;2023-06-14T00:07:36;28.80;31.10
45843;DHT22;31563;51.744;8.252;2023-06-14T00:10:06;28.80;31.10
45843;DHT22;31563;51.744;8.252;2023-06-14T00:12:34;28.80;30.70
45843;DHT22;31563;51.744;8.252;2023-06-14T00:15:03;28.60;30.20
45843;DHT22;31563;51.744;8.252;2023-06-14T00:17:32;28.50;30.20
45843;DHT22;31563;51.744;8.252;2023-06-14T00:20:03;28.50;31.00
45843;DHT22;31563;51.744;8.252;2023-06-14T00:22:34;28.50;31.10
45843;DHT22;31563;51.744;8.252;2023-06-14T00:25:04;28.50;31.10
45843;DHT22;31563;51.744;8.252;2023-06-14T00:27:49;28.50;31.10
45843;DHT22;31563;51.744;8.252;2023-06-14T00:30:18;28.40;31.10
45843;DHT22;31563;51.744;8.252;2023-06-14T00:32:47;28.40;31.10
45843;DHT22;31563;51.744;8.252;2023-06-14T00:35:17;28.40;31.20
45843;DHT22;31563;51.744;8.252;2023-06-14T00:37:45;28.40;31.80
45843;DHT22;31563;51.744;8.252;2023-06-14T00:40:13;28.30;31.10
45843;DHT22;31563;51.744;8.252;2023-06-14T00:42:42;28.30;31.10
45843;DHT22;31563;51.744;8.252;2023-06-14T00:45:10;28.30;31.20
45843;DHT22;31563;51.744;8.252;2023-06-14T00:47:40;28.30;31.30
45843;DHT22;31563;51.744;8.252;2023-06-14T00:50:09;28.30;31.90
45843;DHT22;31563;51.744;8.252;2023-06-14T00:52:39;28.30;31.90
45843;DHT22;31563;51.744;8.252;2023-06-14T00:55:08;28.30;32.00
45843;DHT22;31563;51.744;8.252;2023-06-14T00:57:37;28.30;32.30
45843;DHT22;31563;51.744;8.252;2023-06-14T01:00:08;28.30;32.70
45843;DHT22;31563;51.744;8.252;2023-06-14T01:02:37;28.30;32.60
45843;DHT22;31563;51.744;8.252;2023-06-14T01:05:06;28.30;32.90
45843;DHT22;31563;51.744;8.252;2023-06-14T01:07:47;28.30;32.90
45843;DHT22;31563;51.744;8.252;2023-06-14T01:10:29;28.30;32.90
45843;DHT22;31563;51.744;8.252;2023-06-14T01:13:05;28.30;33.00
45843;DHT22;31563;51.744;8.252;2023-06-14T01:15:36;28.20;33.00
45843;DHT22;31563;51.744;8.252;2023-06-14T01:18:05;28.20;33.00
45843;DHT22;31563;51.744;8.252;2023-06-14T01:20:33;28.20;33.20
45843;DHT22;31563;51.744;8.252;2023-06-14T01:23:06;28.20;33.30
45843;DHT22;31563;51.744;8.252;2023-06-14T01:25:34;28.10;33.20
45843;DHT22;31563;51.744;8.252;2023-06-14T01:28:05;28.10;33.30
45843;DHT22;31563;51.744;8.252;2023-06-14T01:30:37;28.10;33.40
45843;DHT22;31563;51.744;8.252;2023-06-14T01:33:05;28.00;33.40
45843;DHT22;31563;51.744;8.252;2023-06-14T01:35:34;28.00;33.40
45843;DHT22;31563;51.744;8.252;2023-06-14T01:38:03;28.00;33.50
45843;DHT22;31563;51.744;8.252;2023-06-14T01:40:34;28.00;33.50
45843;DHT22;31563;51.744;8.252;2023-06-14T01:43:03;28.00;33.60
45843;DHT22;31563;51.744;8.252;2023-06-14T01:45:33;28.00;33.70
45843;DHT22;31563;51.744;8.252;2023-06-14T01:48:01;27.90;33.70
45843;DHT22;31563;51.744;8.252;2023-06-14T01:50:30;27.90;33.70
45843;DHT22;31563;51.744;8.252;2023-06-14T01:52:58;27.90;33.80
45843;DHT22;31563;51.744;8.252;2023-06-14T01:55:27;27.90;33.80
45843;DHT22;31563;51.744;8.252;2023-06-14T01:57:56;27.90;33.80
45843;DHT22;31563;51.744;8.252;2023-06-14T02:00:25;27.80;33.90
45843;DHT22;31563;51.744;8.252;2023-06-14T02:02:53;27.80;33.80
45843;DHT22;31563;51.744;8.252;2023-06-14T02:05:22;27.80;34.00
45843;DHT22;31563;51.744;8.252;2023-06-14T02:07:50;27.80;33.90
45843;DHT22;31563;51.744;8.252;2023-06-14T02:10:20;27.80;33.90
45843;DHT22;31563;51.744;8.252;2023-06-14T02:12:48;27.80;34.00
45843;DHT22;31563;51.744;8.252;2023-06-14T02:15:18;27.70;33.90
45843;DHT22;31563;51.744;8.252;2023-06-14T02:17:46;27.70;33.90
45843;DHT22;31563;51.744;8.252;2023-06-14T02:20:16;27.70;34.00
45843;DHT22;31563;51.744;8.252;2023-06-14T02:22:45;27.70;34.10
45843;DHT22;31563;51.744;8.252;2023-06-14T02:25:13;27.70;34.10
45843;DHT22;31563;51.744;8.252;2023-06-14T02:27:42;27.70;34.20
45843;DHT22;31563;51.744;8.252;2023-06-14T02:30:11;27.60;34.20
45843;DHT22;31563;51.744;8.252;2023-06-14T02:32:41;27.70;34.40
45843;DHT22;31563;51.744;8.252;2023-06-14T02:35:10;27.60;34.20
45843;DHT22;31563;51.744;8.252;2023-06-14T02:37:40;27.60;34.20
45843;DHT22;31563;51.744;8.252;2023-06-14T02:40:10;27.50;34.10
45843;DHT22;31563;51.744;8.252;2023-06-14T02:42:38;27.50;34.20
45843;DHT22;31563;51.744;8.252;2023-06-14T02:45:08;27.50;34.30
45843;DHT22;31563;51.744;8.252;2023-06-14T02:47:36;27.50;35.10
45843;DHT22;31563;51.744;8.252;2023-06-14T02:50:08;27.40;34.30
45843;DHT22;31563;51.744;8.252;2023-06-14T02:52:36;27.40;34.40
45843;DHT22;31563;51.744;8.252;2023-06-14T02:55:05;27.40;34.40
45843;DHT22;31563;51.744;8.252;2023-06-14T02:57:35;27.50;34.50
45843;DHT22;31563;51.744;8.252;2023-06-14T03:00:03;27.40;34.50
45843;DHT22;31563;51.744;8.252;2023-06-14T03:02:35;27.40;34.60
45843;DHT22;31563;51.744;8.252;2023-06-14T03:05:03;27.40;34.60
45843;DHT22;31563;51.744;8.252;2023-06-14T03:07:34;27.30;34.60
45843;DHT22;31563;51.744;8.252;2023-06-14T03:10:08;27.30;34.60
45843;DHT22;31563;51.744;8.252;2023-06-14T03:12:37;27.30;34.60
45843;DHT22;31563;51.744;8.252;2023-06-14T03:15:05;27.30;34.60
45843;DHT22;31563;51.744;8.252;2023-06-14T03:17:34;27.20;34.50
45843;DHT22;31563;51.744;8.252;2023-06-14T03:20:07;27.20;34.50
45843;DHT22;31563;51.744;8.252;2023-06-14T03:22:36;27.20;34.50
45843;DHT22;31563;51.744;8.252;2023-06-14T03:25:07;27.10;34.50
45843;DHT22;31563;51.744;8.252;2023-06-14T03:27:36;27.10;34.60
45843;DHT22;31563;51.744;8.252;2023-06-14T03:30:05;27.10;34.60
45843;DHT22;31563;51.744;8.252;2023-06-14T03:32:34;27.10;34.60
45843;DHT22;31563;51.744;8.252;2023-06-14T03:35:03;27.00;34.60
45843;DHT22;31563;51.744;8.252;2023-06-14T03:37:31;27.00;34.60
45843;DHT22;31563;51.744;8.252;2023-06-14T03:40:01;27.00;34.60
45843;DHT22;31563;51.744;8.252;2023-06-14T03:42:32;26.90;34.60
45843;DHT22;31563;51.744;8.252;2023-06-14T03:45:01;26.90;34.60
45843;DHT22;31563;51.744;8.252;2023-06-14T03:47:29;26.90;34.70
45843;DHT22;31563;51.744;8.252;2023-06-14T03:49:57;26.90;34.80
45843;DHT22;31563;51.744;8.252;2023-06-14T03:52:26;26.90;34.90
45843;DHT22;31563;51.744;8.252;2023-06-14T03:54:54;26.90;34.90
45843;DHT22;31563;51.744;8.252;2023-06-14T03:57:44;26.90;35.00
45843;DHT22;31563;51.744;8.252;2023-06-14T04:00:13;26.90;35.00
45843;DHT22;31563;51.744;8.252;2023-06-14T04:02:42;26.90;35.20
45843;DHT22;31563;51.744;8.252;2023-06-14T04:05:11;26.90;35.20
45843;DHT22;31563;51.744;8.252;2023-06-14T04:07:40;26.90;35.20
45843;DHT22;31563;51.744;8.252;2023-06-14T04:10:12;26.90;35.10
45843;DHT22;31563;51.744;8.252;2023-06-14T04:12:40;26.90;35.20
45843;DHT22;31563;51.744;8.252;2023-06-14T04:15:11;26.90;35.20
45843;DHT22;31563;51.744;8.252;2023-06-14T04:17:47;26.90;35.20
45843;DHT22;31563;51.744;8.252;2023-06-14T04:20:16;26.80;35.40
45843;DHT22;31563;51.744;8.252;2023-06-14T04:22:44;26.90;35.70
45843;DHT22;31563;51.744;8.252;2023-06-14T04:25:12;26.90;35.80
45843;DHT22;31563;51.744;8.252;2023-06-14T04:27:40;27.00;36.10
45843;DHT22;31563;51.744;8.252;2023-06-14T04:30:10;27.00;36.00
45843;DHT22;31563;51.744;8.252;2023-06-14T04:32:40;26.90;35.70
45843;DHT22;31563;51.744;8.252;2023-06-14T04:35:09;26.80;34.50
45843;DHT22;31563;51.744;8.252;2023-06-14T04:37:38;26.50;34.20
45843;DHT22;31563;51.744;8.252;2023-06-14T04:40:09;26.40;34.30
45843;DHT22;31563;51.744;8.252;2023-06-14T04:42:38;26.20;34.40
45843;DHT22;31563;51.744;8.252;2023-06-14T04:45:08;26.10;34.50
45843;DHT22;31563;51.744;8.252;2023-06-14T04:47:38;26.00;34.60
45843;DHT22;31563;51.744;8.252;2023-06-14T04:50:08;25.90;34.80
45843;DHT22;31563;51.744;8.252;2023-06-14T04:52:36;26.00;35.30
45843;DHT22;31563;51.744;8.252;2023-06-14T04:55:05;26.20;35.30
45843;DHT22;31563;51.744;8.252;2023-06-14T04:57:33;26.20;35.10
45843;DHT22;31563;51.744;8.252;2023-06-14T05:00:02;26.30;35.20
45843;DHT22;31563;51.744;8.252;2023-06-14T05:02:31;26.40;35.10
45843;DHT22;31563;51.744;8.252;2023-06-14T05:05:01;26.40;35.10
45843;DHT22;31563;51.744;8.252;2023-06-14T05:07:29;26.40;35.10
45843;DHT22;31563;51.744;8.252;2023-06-14T05:09:57;26.40;35.10
45843;DHT22;31563;51.744;8.252;2023-06-14T05:12:25;26.40;34.80
45843;DHT22;31563;51.744;8.252;2023-06-14T05:14:54;26.20;34.60
45843;DHT22;31563;51.744;8.252;2023-06-14T05:17:22;26.10;34.60
45843;DHT22;31563;51.744;8.252;2023-06-14T05:19:50;26.00;34.70
45843;DHT22;31563;51.744;8.252;2023-06-14T05:22:20;25.90;34.70
45843;DHT22;31563;51.744;8.252;2023-06-14T05:24:48;25.80;34.80
45843;DHT22;31563;51.744;8.252;2023-06-14T05:27:16;25.80;35.00
45843;DHT22;31563;51.744;8.252;2023-06-14T05:29:45;25.80;35.00
45843;DHT22;31563;51.744;8.252;2023-06-14T05:32:13;25.70;35.10
45843;DHT22;31563;51.744;8.252;2023-06-14T05:34:42;25.70;35.20
45843;DHT22;31563;51.744;8.252;2023-06-14T05:37:10;25.70;35.20
45843;DHT22;31563;51.744;8.252;2023-06-14T05:39:41;25.60;35.20
45843;DHT22;31563;51.744;8.252;2023-06-14T05:42:09;25.70;35.70
45843;DHT22;31563;51.744;8.252;2023-06-14T05:44:37;25.80;35.70
45843;DHT22;31563;51.744;8.252;2023-06-14T05:47:06;25.90;35.80
45843;DHT22;31563;51.744;8.252;2023-06-14T05:49:34;26.00;35.80
45843;DHT22;31563;51.744;8.252;2023-06-14T05:52:03;26.10;36.00
45843;DHT22;31563;51.744;8.252;2023-06-14T05:54:31;26.20;36.30
45843;DHT22;31563;51.744;8.252;2023-06-14T05:57:01;26.20;36.00
45843;DHT22;31563;51.744;8.252;2023-06-14T05:59:30;26.40;36.20
45843;DHT22;31563;51.744;8.252;2023-06-14T06:01:58;26.40;36.10
45843;DHT22;31563;51.744;8.252;2023-06-14T06:04:26;26.40;36.00
45843;DHT22;31563;51.744;8.252;2023-06-14T06:06:54;26.40;35.80
45843;DHT22;31563;51.744;8.252;2023-06-14T06:09:22;26.50;36.00
45843;DHT22;31563;51.744;8.252;2023-06-14T06:11:51;26.50;36.00
45843;DHT22;31563;51.744;8.252;2023-06-14T06:14:21;26.60;36.30
45843;DHT22;31563;51.744;8.252;2023-06-14T06:16:50;26.60;36.00
45843;DHT22;31563;51.744;8.252;2023-06-14T06:19:19;26.70;36.00
45843;DHT22;31563;51.744;8.252;2023-06-14T06:21:47;26.70;36.00
45843;DHT22;31563;51.744;8.252;2023-06-14T06:24:15;26.70;35.90
45843;DHT22;31563;51.744;8.252;2023-06-14T06:26:43;26.70;36.00
45843;DHT22;31563;51.744;8.252;2023-06-14T06:29:12;26.80;36.10
45843;DHT22;31563;51.744;8.252;2023-06-14T06:31:42;26.80;35.80
45843;DHT22;31563;51.744;8.252;2023-06-14T06:34:10;26.80;35.80
45843;DHT22;31563;51.744;8.252;2023-06-14T06:36:38;26.80;35.90
45843;DHT22;31563;51.744;8.252;2023-06-14T06:39:06;26.90;35.90
45843;DHT22;31563;51.744;8.252;2023-06-14T06:41:37;26.90;35.80
45843;DHT22;31563;51.744;8.252;2023-06-14T06:44:06;26.90;35.80
45843;DHT22;31563;51.744;8.252;2023-06-14T06:46:36;26.90;35.70
45843;DHT22;31563;51.744;8.252;2023-06-14T06:49:08;26.90;35.30
45843;DHT22;31563;51.744;8.252;2023-06-14T06:51:41;26.80;35.10
45843;DHT22;31563;51.744;8.252;2023-06-14T06:54:10;26.70;35.10
45843;DHT22;31563;51.744;8.252;2023-06-14T06:56:38;26.60;34.90
45843;DHT22;31563;51.744;8.252;2023-06-14T06:59:07;26.60;35.50
45843;DHT22;31563;51.744;8.252;2023-06-14T07:01:35;26.50;34.70
45843;DHT22;31563;51.744;8.252;2023-06-14T07:04:03;26.50;34.50
45843;DHT22;31563;51.744;8.252;2023-06-14T07:06:33;26.50;34.10
45843;DHT22;31563;51.744;8.252;2023-06-14T07:09:01;26.40;34.30
45843;DHT22;31563;51.744;8.252;2023-06-14T07:11:31;26.40;34.20
45843;DHT22;31563;51.744;8.252;2023-06-14T07:13:59;26.50;34.30
45843;DHT22;31563;51.744;8.252;2023-06-14T07:16:28;26.50;34.20
45843;DHT22;31563;51.744;8.252;2023-06-14T07:18:56;26.60;34.00
45843;DHT22;31563;51.744;8.252;2023-06-14T07:21:24;26.60;33.90
45843;DHT22;31563;51.744;8.252;2023-06-14T07:23:55;26.60;33.90
45843;DHT22;31563;51.744;8.252;2023-06-14T07:26:23;26.60;33.80
45843;DHT22;31563;51.744;8.252;2023-06-14T07:28:51;26.70;34.00
45843;DHT22;31563;51.744;8.252;2023-06-14T07:31:19;26.70;33.90
45843;DHT22;31563;51.744;8.252;2023-06-14T07:33:48;26.70;33.70
45843;DHT22;31563;51.744;8.252;2023-06-14T07:36:16;26.80;33.80
45843;DHT22;31563;51.744;8.252;2023-06-14T07:38:46;26.80;33.80
45843;DHT22;31563;51.744;8.252;2023-06-14T07:41:16;26.80;33.80
45843;DHT22;31563;51.744;8.252;2023-06-14T07:43:44;26.90;33.80
45843;DHT22;31563;51.744;8.252;2023-06-14T07:46:12;26.90;33.70
45843;DHT22;31563;51.744;8.252;2023-06-14T07:48:40;26.90;33.80
45843;DHT22;31563;51.744;8.252;2023-06-14T07:51:09;27.00;33.80
45843;DHT22;31563;51.744;8.252;2023-06-14T07:53:37;27.00;33.80
45843;DHT22;31563;51.744;8.252;2023-06-14T07:56:05;27.00;33.80
45843;DHT22;31563;51.744;8.252;2023-06-14T07:58:35;27.10;33.90
45843;DHT22;31563;51.744;8.252;2023-06-14T08:01:03;27.10;34.00
45843;DHT22;31563;51.744;8.252;2023-06-14T08:03:33;27.20;34.20
45843;DHT22;31563;51.744;8.252;2023-06-14T08:06:01;27.40;34.40
45843;DHT22;31563;51.744;8.252;2023-06-14T08:08:31;27.50;34.40
45843;DHT22;31563;51.744;8.252;2023-06-14T08:10:59;27.70;34.30
45843;DHT22;31563;51.744;8.252;2023-06-14T08:13:27;27.80;34.60
45843;DHT22;31563;51.744;8.252;2023-06-14T08:15:56;27.80;34.50
45843;DHT22;31563;51.744;8.252;2023-06-14T08:18:25;27.80;34.40
45843;DHT22;31563;51.744;8.252;2023-06-14T08:20:53;27.90;34.50
45843;DHT22;31563;51.744;8.252;2023-06-14T08:23:24;28.00;34.50
45843;DHT22;31563;51.744;8.252;2023-06-14T08:25:52;28.00;34.40
45843;DHT22;31563;51.744;8.252;2023-06-14T08:28:20;28.10;34.50
45843;DHT22;31563;51.744;8.252;2023-06-14T08:30:48;28.20;34.40
45843;DHT22;31563;51.744;8.252;2023-06-14T08:33:18;28.30;34.20
45843;DHT22;31563;51.744;8.252;2023-06-14T08:35:46;28.40;34.30
45843;DHT22;31563;51.744;8.252;2023-06-14T08:38:15;28.40;34.20
45843;DHT22;31563;51.744;8.252;2023-06-14T08:40:45;28.50;34.10
45843;DHT22;31563;51.744;8.252;2023-06-14T08:43:16;28.60;34.00
45843;DHT22;31563;51.744;8.252;2023-06-14T08:45:45;28.70;34.00
45843;DHT22;31563;51.744;8.252;2023-06-14T08:48:14;28.70;33.90
45843;DHT22;31563;51.744;8.252;2023-06-14T08:50:47;28.80;33.90
45843;DHT22;31563;51.744;8.252;2023-06-14T08:53:20;28.90;33.90
45843;DHT22;31563;51.744;8.252;2023-06-14T08:55:49;28.90;33.70
45843;DHT22;31563;51.744;8.252;2023-06-14T08:58:20;29.00;33.60
45843;DHT22;31563;51.744;8.252;2023-06-14T09:00:51;29.10;33.60
45843;DHT22;31563;51.744;8.252;2023-06-14T09:03:19;29.20;33.50
45843;DHT22;31563;51.744;8.252;2023-06-14T09:05:49;29.20;33.60
45843;DHT22;31563;51.744;8.252;2023-06-14T09:08:19;29.40;33.50
45843;DHT22;31563;51.744;8.252;2023-06-14T09:10:49;29.40;33.40
45843;DHT22;31563;51.744;8.252;2023-06-14T09:13:18;29.50;33.30
45843;DHT22;31563;51.744;8.252;2023-06-14T09:15:46;29.60;33.30
45843;DHT22;31563;51.744;8.252;2023-06-14T09:18:14;29.60;33.30
45843;DHT22;31563;51.744;8.252;2023-06-14T09:20:42;29.70;33.20
45843;DHT22;31563;51.744;8.252;2023-06-14T09:23:12;29.80;33.20
45843;DHT22;31563;51.744;8.252;2023-06-14T09:25:44;29.80;33.20
45843;DHT22;31563;51.744;8.252;2023-06-14T09:28:13;29.90;33.00
45843;DHT22;31563;51.744;8.252;2023-06-14T09:30:42;30.00;33.00
45843;DHT22;31563;51.744;8.252;2023-06-14T09:33:10;30.10;33.00
45843;DHT22;31563;51.744;8.252;2023-06-14T09:35:39;30.20;32.90
45843;DHT22;31563;51.744;8.252;2023-06-14T09:38:07;30.30;32.90
45843;DHT22;31563;51.744;8.252;2023-06-14T09:40:36;30.40;32.90
45843;DHT22;31563;51.744;8.252;2023-06-14T09:43:05;30.40;32.90
45843;DHT22;31563;51.744;8.252;2023-06-14T09:45:35;30.50;32.70
45843;DHT22;31563;51.744;8.252;2023-06-14T09:48:07;30.60;32.60
45843;DHT22;31563;51.744;8.252;2023-06-14T09:50:36;30.70;32.60
45843;DHT22;31563;51.744;8.252;2023-06-14T09:53:06;30.80;32.50
45843;DHT22;31563;51.744;8.252;2023-06-14T09:55:37;30.90;32.50
45843;DHT22;31563;51.744;8.252;2023-06-14T09:58:07;30.90;32.30
45843;DHT22;31563;51.744;8.252;2023-06-14T10:00:36;31.00;32.10
45843;DHT22;31563;51.744;8.252;2023-06-14T10:03:12;30.90;32.20
45843;DHT22;31563;51.744;8.252;2023-06-14T10:05:43;31.00;32.10
45843;DHT22;31563;51.744;8.252;2023-06-14T10:08:14;31.10;32.00
45843;DHT22;31563;51.744;8.252;2023-06-14T10:10:46;31.20;32.00
45843;DHT22;31563;51.744;8.252;2023-06-14T10:13:15;31.30;31.90
45843;DHT22;31563;51.744;8.252;2023-06-14T10:15:51;31.40;31.90
45843;DHT22;31563;51.744;8.252;2023-06-14T10:18:28;31.50;32.40
45843;DHT22;31563;51.744;8.252;2023-06-14T10:21:06;31.60;31.80
45843;DHT22;31563;51.744;8.252;2023-06-14T10:23:38;31.70;31.80
45843;DHT22;31563;51.744;8.252;2023-06-14T10:26:18;31.80;31.70
45843;DHT22;31563;51.744;8.252;2023-06-14T10:28:56;31.90;31.60
45843;DHT22;31563;51.744;8.252;2023-06-14T10:31:40;32.00;31.50
45843;DHT22;31563;51.744;8.252;2023-06-14T10:34:10;32.00;31.20
45843;DHT22;31563;51.744;8.252;2023-06-14T10:36:41;32.00;31.20
45843;DHT22;31563;51.744;8.252;2023-06-14T10:39:17;32.10;31.20
45843;DHT22;31563;51.744;8.252;2023-06-14T10:41:56;32.20;31.20
45843;DHT22;31563;51.744;8.252;2023-06-14T10:44:41;32.20;31.10
45843;DHT22;31563;51.744;8.252;2023-06-14T10:47:21;32.30;31.10
45843;DHT22;31563;51.744;8.252;2023-06-14T10:49:51;32.40;31.10
45843;DHT22;31563;51.744;8.252;2023-06-14T10:52:26;32.50;31.00
45843;DHT22;31563;51.744;8.252;2023-06-14T10:55:16;32.50;30.90
45843;DHT22;31563;51.744;8.252;2023-06-14T10:57:49;32.70;31.00
45843;DHT22;31563;51.744;8.252;2023-06-14T11:00:22;32.80;30.80
45843;DHT22;31563;51.744;8.252;2023-06-14T11:05:59;32.70;30.50
45843;DHT22;31563;51.744;8.252;2023-06-14T11:11:23;32.90;30.70
45843;DHT22;31563;51.744;8.252;2023-06-14T11:13:53;32.90;30.50
45843;DHT22;31563;51.744;8.252;2023-06-14T11:16:26;32.90;30.40
45843;DHT22;31563;51.744;8.252;2023-06-14T11:18:55;33.00;30.60
45843;DHT22;31563;51.744;8.252;2023-06-14T11:21:24;33.10;30.40
45843;DHT22;31563;51.744;8.252;2023-06-14T11:23:58;33.20;30.50
45843;DHT22;31563;51.744;8.252;2023-06-14T11:26:26;33.40;30.50
45843;DHT22;31563;51.744;8.252;2023-06-14T11:28:57;33.40;30.40
45843;DHT22;31563;51.744;8.252;2023-06-14T11:31:27;33.50;30.50
45843;DHT22;31563;51.744;8.252;2023-06-14T11:33:56;33.60;30.50
45843;DHT22;31563;51.744;8.252;2023-06-14T11:36:27;33.50;30.10
45843;DHT22;31563;51.744;8.252;2023-06-14T11:39:00;33.40;30.10
45843;DHT22;31563;51.744;8.252;2023-06-14T11:41:34;33.30;30.50
45843;DHT22;31563;51.744;8.252;2023-06-14T11:44:04;33.30;30.20
45843;DHT22;31563;51.744;8.252;2023-06-14T11:46:32;33.20;30.30
45843;DHT22;31563;51.744;8.252;2023-06-14T11:49:01;33.20;30.30
45843;DHT22;31563;51.744;8.252;2023-06-14T11:51:32;33.20;30.30
45843;DHT22;31563;51.744;8.252;2023-06-14T11:54:01;33.10;30.20
45843;DHT22;31563;51.744;8.252;2023-06-14T11:56:30;33.00;30.30
45843;DHT22;31563;51.744;8.252;2023-06-14T11:58:59;33.10;30.40
45843;DHT22;31563;51.744;8.252;2023-06-14T12:01:30;33.20;30.50
45843;DHT22;31563;51.744;8.252;2023-06-14T12:03:59;33.10;30.90
45843;DHT22;31563;51.744;8.252;2023-06-14T12:06:29;33.20;31.10
45843;DHT22;31563;51.744;8.252;2023-06-14T12:09:02;33.30;31.20
45843;DHT22;31563;51.744;8.252;2023-06-14T12:11:34;33.50;31.30
45843;DHT22;31563;51.744;8.252;2023-06-14T12:14:03;33.60;31.20
45843;DHT22;31563;51.744;8.252;2023-06-14T12:16:34;33.60;30.90
45843;DHT22;31563;51.744;8.252;2023-06-14T12:19:12;33.70;31.00
45843;DHT22;31563;51.744;8.252;2023-06-14T12:21:41;33.80;30.90
45843;DHT22;31563;51.744;8.252;2023-06-14T12:24:09;33.70;30.70
45843;DHT22;31563;51.744;8.252;2023-06-14T12:26:40;33.70;31.10
45843;DHT22;31563;51.744;8.252;2023-06-14T12:29:09;33.60;30.90
45843;DHT22;31563;51.744;8.252;2023-06-14T12:31:40;33.70;31.20
45843;DHT22;31563;51.744;8.252;2023-06-14T12:34:09;33.90;31.20
45843;DHT22;31563;51.744;8.252;2023-06-14T12:36:38;34.00;31.10
45843;DHT22;31563;51.744;8.252;2023-06-14T12:39:11;34.10;31.10
45843;DHT22;31563;51.744;8.252;2023-06-14T12:41:39;34.10;30.90
45843;DHT22;31563;51.744;8.252;2023-06-14T12:44:09;34.00;30.80
45843;DHT22;31563;51.744;8.252;2023-06-14T12:46:39;33.90;31.00
45843;DHT22;31563;51.744;8.252;2023-06-14T12:49:09;34.00;31.20
45843;DHT22;31563;51.744;8.252;2023-06-14T12:51:38;34.10;31.10
45843;DHT22;31563;51.744;8.252;2023-06-14T12:54:06;34.20;31.10
45843;DHT22;31563;51.744;8.252;2023-06-14T12:56:34;34.30;30.90
45843;DHT22;31563;51.744;8.252;2023-06-14T12:59:03;34.40;30.80
45843;DHT22;31563;51.744;8.252;2023-06-14T13:01:33;34.30;30.80
45843;DHT22;31563;51.744;8.252;2023-06-14T13:04:27;34.40;30.90
45843;DHT22;31563;51.744;8.252;2023-06-14T13:06:58;34.40;30.40
45843;DHT22;31563;51.744;8.252;2023-06-14T13:09:26;34.30;30.90
45843;DHT22;31563;51.744;8.252;2023-06-14T13:11:54;34.50;30.90
45843;DHT22;31563;51.744;8.252;2023-06-14T13:14:22;34.60;30.90
45843;DHT22;31563;51.744;8.252;2023-06-14T13:16:52;34.70;30.90
45843;DHT22;31563;51.744;8.252;2023-06-14T13:19:20;34.80;31.00
45843;DHT22;31563;51.744;8.252;2023-06-14T13:21:50;35.00;31.00
45843;DHT22;31563;51.744;8.252;2023-06-14T13:24:18;35.10;31.00
45843;DHT22;31563;51.744;8.252;2023-06-14T13:26:46;35.00;30.30
45843;DHT22;31563;51.744;8.252;2023-06-14T13:29:15;34.50;29.80
45843;DHT22;31563;51.744;8.252;2023-06-14T13:31:43;34.30;29.80
45843;DHT22;31563;51.744;8.252;2023-06-14T13:34:12;34.40;30.20
45843;DHT22;31563;51.744;8.252;2023-06-14T13:36:40;34.50;30.20
45843;DHT22;31563;51.744;8.252;2023-06-14T13:39:10;34.70;30.00
45843;DHT22;31563;51.744;8.252;2023-06-14T13:41:38;34.90;30.00
45843;DHT22;31563;51.744;8.252;2023-06-14T13:44:06;34.90;29.10
45843;DHT22;31563;51.744;8.252;2023-06-14T13:46:35;34.60;29.00
45843;DHT22;31563;51.744;8.252;2023-06-14T13:49:03;34.40;29.10
45843;DHT22;31563;51.744;8.252;2023-06-14T13:51:32;34.50;29.90
45843;DHT22;31563;51.744;8.252;2023-06-14T13:54:01;34.80;30.00
45843;DHT22;31563;51.744;8.252;2023-06-14T13:56:31;35.00;29.90
45843;DHT22;31563;51.744;8.252;2023-06-14T13:58:59;35.10;29.80
45843;DHT22;31563;51.744;8.252;2023-06-14T14:01:28;35.10;29.40
45843;DHT22;31563;51.744;8.252;2023-06-14T14:03:56;34.70;29.10
45843;DHT22;31563;51.744;8.252;2023-06-14T14:06:25;34.40;29.20
45843;DHT22;31563;51.744;8.252;2023-06-14T14:08:53;34.40;29.60
45843;DHT22;31563;51.744;8.252;2023-06-14T14:11:22;34.70;29.70
45843;DHT22;31563;51.744;8.252;2023-06-14T14:13:51;34.70;29.50
45843;DHT22;31563;51.744;8.252;2023-06-14T14:16:19;34.80;29.80
45843;DHT22;31563;51.744;8.252;2023-06-14T14:18:48;35.10;29.80
45843;DHT22;31563;51.744;8.252;2023-06-14T14:21:16;35.40;29.80
45843;DHT22;31563;51.744;8.252;2023-06-14T14:23:44;35.60;29.70
45843;DHT22;31563;51.744;8.252;2023-06-14T14:26:13;35.60;29.20
45843;DHT22;31563;51.744;8.252;2023-06-14T14:28:41;35.30;29.10
45843;DHT22;31563;51.744;8.252;2023-06-14T14:31:11;35.20;29.10
45843;DHT22;31563;51.744;8.252;2023-06-14T14:33:39;35.20;29.50
45843;DHT22;31563;51.744;8.252;2023-06-14T14:36:07;35.10;29.30
45843;DHT22;31563;51.744;8.252;2023-06-14T14:38:36;35.00;29.20
45843;DHT22;31563;51.744;8.252;2023-06-14T14:41:04;34.90;29.30
45843;DHT22;31563;51.744;8.252;2023-06-14T14:43:32;34.80;29.30
45843;DHT22;31563;51.744;8.252;2023-06-14T14:46:00;34.70;29.30
45843;DHT22;31563;51.744;8.252;2023-06-14T14:48:30;34.70;29.50
45843;DHT22;31563;51.744;8.252;2023-06-14T14:50:58;34.70;29.60
45843;DHT22;31563;51.744;8.252;2023-06-14T14:53:27;34.70;29.60
45843;DHT22;31563;51.744;8.252;2023-06-14T14:55:55;34.80;29.70
45843;DHT22;31563;51.744;8.252;2023-06-14T14:58:23;34.90;29.80
45843;DHT22;31563;51.744;8.252;2023-06-14T15:00:52;35.00;29.70
45843;DHT22;31563;51.744;8.252;2023-06-14T15:03:20;34.90;29.30
45843;DHT22;31563;51.744;8.252;2023-06-14T15:05:50;34.90;29.10
45843;DHT22;31563;51.744;8.252;2023-06-14T15:08:18;34.60;29.70
45843;DHT22;31563;51.744;8.252;2023-06-14T15:10:47;34.60;29.50
45843;DHT22;31563;51.744;8.252;2023-06-14T15:13:16;34.50;29.50
45843;DHT22;31563;51.744;8.252;2023-06-14T15:15:44;34.50;29.70
45843;DHT22;31563;51.744;8.252;2023-06-14T15:18:12;34.80;29.80
45843;DHT22;31563;51.744;8.252;2023-06-14T15:20:42;35.10;29.70
45843;DHT22;31563;51.744;8.252;2023-06-14T15:23:11;35.20;29.60
45843;DHT22;31563;51.744;8.252;2023-06-14T15:25:46;35.40;29.50
45843;DHT22;31563;51.744;8.252;2023-06-14T15:28:15;35.40;29.50
45843;DHT22;31563;51.744;8.252;2023-06-14T15:30:43;35.50;29.40
45843;DHT22;31563;51.744;8.252;2023-06-14T15:33:11;35.60;29.40
45843;DHT22;31563;51.744;8.252;2023-06-14T15:35:40;35.70;29.30
45843;DHT22;31563;51.744;8.252;2023-06-14T15:38:08;35.80;29.10
45843;DHT22;31563;51.744;8.252;2023-06-14T15:40:37;35.90;29.20
45843;DHT22;31563;51.744;8.252;2023-06-14T15:43:06;36.00;29.10
45843;DHT22;31563;51.744;8.252;2023-06-14T15:45:34;36.00;29.00
45843;DHT22;31563;51.744;8.252;2023-06-14T15:48:04;35.90;28.90
45843;DHT22;31563;51.744;8.252;2023-06-14T15:50:33;35.80;28.90